Falkland, United Kingdom
Current Conditions -  °F | °C
As of 6:20 PM on Thursday 23 Oct 2014 (Local Time) from EGPN Reporting Station
Rain Showers Rain Showers  
Wind Chill: 57°   Ceiling: 1400
Heat Index: 57°   Visibility: 6mi
Dew Point: 54°   Wind: 21mph
Humidity: 88%   Direction: 230°SW
Pressure: 29.65"   Gusts: NA
Location:  56.25°N, 3.21°W
Report Text: EGPN 231720Z 23018KT 9999 VCSH FEW010 BKN014 BKN025 14/12 Q1004
Loading
Personal Weather Stations






























Interactive Weather Map
Tropical Storm Tracking
New forecast layout! Learn more

10-Day Weather Forecast

Advertisements
Track Severe Weather on mobile